sensor_id;sensor_type;location;lat;lon;timestamp;temperature;humidity
51579;DHT22;47998;53.242;6.386;2023-01-04T00:01:29;8.50;99.90
51579;DHT22;47998;53.242;6.386;2023-01-04T00:03:55;8.60;99.90
51579;DHT22;47998;53.242;6.386;2023-01-04T00:06:20;8.60;99.90
51579;DHT22;47998;53.242;6.386;2023-01-04T00:08:47;8.50;1.00
51579;DHT22;47998;53.242;6.386;2023-01-04T00:11:15;8.50;1.00
51579;DHT22;47998;53.242;6.386;2023-01-04T00:13:42;8.50;1.00
51579;DHT22;47998;53.242;6.386;2023-01-04T00:16:12;8.50;1.00
51579;DHT22;47998;53.242;6.386;2023-01-04T00:18:37;8.40;99.90
51579;DHT22;47998;53.242;6.386;2023-01-04T00:21:21;8.30;99.90
51579;DHT22;47998;53.242;6.386;2023-01-04T00:23:48;8.20;1.00
51579;DHT22;47998;53.242;6.386;2023-01-04T00:26:19;8.10;99.90
51579;DHT22;47998;53.242;6.386;2023-01-04T00:28:46;8.10;99.90
51579;DHT22;47998;53.242;6.386;2023-01-04T00:31:14;7.90;99.90
51579;DHT22;47998;53.242;6.386;2023-01-04T00:33:41;7.90;99.90
51579;DHT22;47998;53.242;6.386;2023-01-04T00:36:12;7.90;99.90
51579;DHT22;47998;53.242;6.386;2023-01-04T00:38:38;7.90;99.90
51579;DHT22;47998;53.242;6.386;2023-01-04T00:41:05;7.80;99.90
51579;DHT22;47998;53.242;6.386;2023-01-04T00:43:31;7.80;99.90
51579;DHT22;47998;53.242;6.386;2023-01-04T00:45:57;7.80;99.90
51579;DHT22;47998;53.242;6.386;2023-01-04T00:48:24;7.90;99.90
51579;DHT22;47998;53.242;6.386;2023-01-04T00:50:50;7.80;99.90
51579;DHT22;47998;53.242;6.386;2023-01-04T00:53:17;7.90;99.90
51579;DHT22;47998;53.242;6.386;2023-01-04T00:55:44;8.00;99.90
51579;DHT22;47998;53.242;6.386;2023-01-04T00:58:10;8.00;99.90
51579;DHT22;47998;53.242;6.386;2023-01-04T01:00:36;8.00;99.90
51579;DHT22;47998;53.242;6.386;2023-01-04T01:03:02;8.00;99.90
51579;DHT22;47998;53.242;6.386;2023-01-04T01:05:28;8.00;99.90
51579;DHT22;47998;53.242;6.386;2023-01-04T01:07:53;8.00;99.90
51579;DHT22;47998;53.242;6.386;2023-01-04T01:10:19;8.00;99.90
51579;DHT22;47998;53.242;6.386;2023-01-04T01:12:45;7.90;99.90
51579;DHT22;47998;53.242;6.386;2023-01-04T01:15:11;8.00;99.90
51579;DHT22;47998;53.242;6.386;2023-01-04T01:17:37;8.00;99.90
51579;DHT22;47998;53.242;6.386;2023-01-04T01:20:03;7.90;99.90
51579;DHT22;47998;53.242;6.386;2023-01-04T01:22:30;8.00;99.90
51579;DHT22;47998;53.242;6.386;2023-01-04T01:24:55;8.00;99.90
51579;DHT22;47998;53.242;6.386;2023-01-04T01:27:21;8.00;99.90
51579;DHT22;47998;53.242;6.386;2023-01-04T01:29:47;7.90;99.90
51579;DHT22;47998;53.242;6.386;2023-01-04T01:32:13;8.00;99.90
51579;DHT22;47998;53.242;6.386;2023-01-04T01:34:38;8.00;99.90
51579;DHT22;47998;53.242;6.386;2023-01-04T01:37:04;7.90;99.90
51579;DHT22;47998;53.242;6.386;2023-01-04T01:39:30;7.90;99.90
51579;DHT22;47998;53.242;6.386;2023-01-04T01:41:56;7.90;99.90
51579;DHT22;47998;53.242;6.386;2023-01-04T01:47:17;7.80;99.90
51579;DHT22;47998;53.242;6.386;2023-01-04T01:49:46;8.00;99.90
51579;DHT22;47998;53.242;6.386;2023-01-04T01:52:21;8.00;99.90
51579;DHT22;47998;53.242;6.386;2023-01-04T01:54:58;8.00;99.90
51579;DHT22;47998;53.242;6.386;2023-01-04T01:57:28;7.90;99.90
51579;DHT22;47998;53.242;6.386;2023-01-04T01:59:57;7.90;99.90
51579;DHT22;47998;53.242;6.386;2023-01-04T02:02:24;7.90;99.90
51579;DHT22;47998;53.242;6.386;2023-01-04T02:04:50;8.00;99.90
51579;DHT22;47998;53.242;6.386;2023-01-04T02:07:21;8.10;99.90
51579;DHT22;47998;53.242;6.386;2023-01-04T02:09:48;8.00;99.90
51579;DHT22;47998;53.242;6.386;2023-01-04T02:12:14;8.10;99.90
51579;DHT22;47998;53.242;6.386;2023-01-04T02:14:42;8.00;99.90
51579;DHT22;47998;53.242;6.386;2023-01-04T02:36:36;8.20;99.90
51579;DHT22;47998;53.242;6.386;2023-01-04T02:39:17;8.20;99.90
51579;DHT22;47998;53.242;6.386;2023-01-04T02:41:50;8.10;99.90
51579;DHT22;47998;53.242;6.386;2023-01-04T02:44:18;8.20;99.90
51579;DHT22;47998;53.242;6.386;2023-01-04T02:47:16;8.20;99.90
51579;DHT22;47998;53.242;6.386;2023-01-04T02:50:19;8.20;99.90
51579;DHT22;47998;53.242;6.386;2023-01-04T02:58:58;8.20;99.90
51579;DHT22;47998;53.242;6.386;2023-01-04T03:01:43;8.20;99.90
51579;DHT22;47998;53.242;6.386;2023-01-04T03:09:56;8.40;99.90
51579;DHT22;47998;53.242;6.386;2023-01-04T03:12:25;8.40;99.90
51579;DHT22;47998;53.242;6.386;2023-01-04T03:15:14;8.40;99.90
51579;DHT22;47998;53.242;6.386;2023-01-04T03:18:07;8.40;99.90
51579;DHT22;47998;53.242;6.386;2023-01-04T03:20:33;8.50;99.90
51579;DHT22;47998;53.242;6.386;2023-01-04T03:23:06;8.50;99.90
51579;DHT22;47998;53.242;6.386;2023-01-04T03:26:44;8.60;99.90
51579;DHT22;47998;53.242;6.386;2023-01-04T03:29:18;8.60;99.90
51579;DHT22;47998;53.242;6.386;2023-01-04T03:32:07;8.70;99.90
51579;DHT22;47998;53.242;6.386;2023-01-04T03:34:54;8.70;99.90
51579;DHT22;47998;53.242;6.386;2023-01-04T03:37:46;8.70;99.90
51579;DHT22;47998;53.242;6.386;2023-01-04T03:40:30;8.80;99.90
51579;DHT22;47998;53.242;6.386;2023-01-04T03:43:21;8.80;99.90
51579;DHT22;47998;53.242;6.386;2023-01-04T03:46:18;9.10;99.90
51579;DHT22;47998;53.242;6.386;2023-01-04T03:49:12;8.90;99.90
51579;DHT22;47998;53.242;6.386;2023-01-04T03:51:39;8.90;99.90
51579;DHT22;47998;53.242;6.386;2023-01-04T03:54:16;9.10;99.90
51579;DHT22;47998;53.242;6.386;2023-01-04T03:56:44;9.20;99.90
51579;DHT22;47998;53.242;6.386;2023-01-04T03:59:11;9.00;99.90
51579;DHT22;47998;53.242;6.386;2023-01-04T04:01:38;9.10;99.90
51579;DHT22;47998;53.242;6.386;2023-01-04T04:04:04;9.40;99.90
51579;DHT22;47998;53.242;6.386;2023-01-04T04:06:48;9.40;99.90
51579;DHT22;47998;53.242;6.386;2023-01-04T04:09:33;9.30;99.90
51579;DHT22;47998;53.242;6.386;2023-01-04T04:11:59;9.30;99.90
51579;DHT22;47998;53.242;6.386;2023-01-04T04:14:25;9.40;99.90
51579;DHT22;47998;53.242;6.386;2023-01-04T04:16:50;9.40;99.90
51579;DHT22;47998;53.242;6.386;2023-01-04T04:19:16;9.50;99.90
51579;DHT22;47998;53.242;6.386;2023-01-04T04:21:42;9.60;99.90
51579;DHT22;47998;53.242;6.386;2023-01-04T04:24:16;9.90;99.90
51579;DHT22;47998;53.242;6.386;2023-01-04T04:26:42;10.00;99.90
51579;DHT22;47998;53.242;6.386;2023-01-04T04:29:08;9.80;99.90
51579;DHT22;47998;53.242;6.386;2023-01-04T04:31:34;10.00;99.90
51579;DHT22;47998;53.242;6.386;2023-01-04T04:33:59;9.90;99.90
51579;DHT22;47998;53.242;6.386;2023-01-04T04:36:25;10.10;99.90
51579;DHT22;47998;53.242;6.386;2023-01-04T04:38:51;10.00;99.90
51579;DHT22;47998;53.242;6.386;2023-01-04T04:41:17;10.30;99.90
51579;DHT22;47998;53.242;6.386;2023-01-04T04:44:01;10.10;99.90
51579;DHT22;47998;53.242;6.386;2023-01-04T04:46:26;10.10;99.90
51579;DHT22;47998;53.242;6.386;2023-01-04T04:48:52;10.30;99.90
51579;DHT22;47998;53.242;6.386;2023-01-04T04:51:18;10.30;99.90
51579;DHT22;47998;53.242;6.386;2023-01-04T04:53:43;10.30;99.90
51579;DHT22;47998;53.242;6.386;2023-01-04T04:56:09;10.40;99.90
51579;DHT22;47998;53.242;6.386;2023-01-04T04:58:36;10.80;99.90
51579;DHT22;47998;53.242;6.386;2023-01-04T05:01:02;10.50;99.90
51579;DHT22;47998;53.242;6.386;2023-01-04T05:03:27;10.20;99.90
51579;DHT22;47998;53.242;6.386;2023-01-04T05:05:53;10.30;99.90
51579;DHT22;47998;53.242;6.386;2023-01-04T05:08:19;10.50;99.90
51579;DHT22;47998;53.242;6.386;2023-01-04T05:10:45;10.30;99.90
51579;DHT22;47998;53.242;6.386;2023-01-04T05:13:11;10.90;99.90
51579;DHT22;47998;53.242;6.386;2023-01-04T05:15:42;10.40;99.90
51579;DHT22;47998;53.242;6.386;2023-01-04T05:18:09;10.40;99.90
51579;DHT22;47998;53.242;6.386;2023-01-04T05:20:35;10.80;99.90
51579;DHT22;47998;53.242;6.386;2023-01-04T05:23:01;10.50;99.90
51579;DHT22;47998;53.242;6.386;2023-01-04T05:25:27;9.90;99.90
51579;DHT22;47998;53.242;6.386;2023-01-04T05:27:53;10.90;99.90
51579;DHT22;47998;53.242;6.386;2023-01-04T05:30:19;10.70;99.90
51579;DHT22;47998;53.242;6.386;2023-01-04T05:33:04;11.00;99.90
51579;DHT22;47998;53.242;6.386;2023-01-04T05:35:29;9.90;99.90
51579;DHT22;47998;53.242;6.386;2023-01-04T05:37:55;9.80;99.90
51579;DHT22;47998;53.242;6.386;2023-01-04T05:40:22;10.40;99.90
51579;DHT22;47998;53.242;6.386;2023-01-04T05:42:48;10.90;99.90
51579;DHT22;47998;53.242;6.386;2023-01-04T05:45:15;10.50;99.90
51579;DHT22;47998;53.242;6.386;2023-01-04T05:47:41;10.80;99.90
51579;DHT22;47998;53.242;6.386;2023-01-04T05:50:07;9.90;99.90
51579;DHT22;47998;53.242;6.386;2023-01-04T05:52:33;9.90;99.90
51579;DHT22;47998;53.242;6.386;2023-01-04T05:54:59;9.90;99.90
51579;DHT22;47998;53.242;6.386;2023-01-04T05:57:25;10.70;99.90
51579;DHT22;47998;53.242;6.386;2023-01-04T05:59:51;10.90;99.90
51579;DHT22;47998;53.242;6.386;2023-01-04T06:02:22;10.90;99.90
51579;DHT22;47998;53.242;6.386;2023-01-04T06:04:48;9.90;99.90
51579;DHT22;47998;53.242;6.386;2023-01-04T06:07:14;10.10;99.90
51579;DHT22;47998;53.242;6.386;2023-01-04T06:09:41;10.10;99.90
51579;DHT22;47998;53.242;6.386;2023-01-04T06:12:07;10.90;99.90
51579;DHT22;47998;53.242;6.386;2023-01-04T06:14:32;10.90;99.90
51579;DHT22;47998;53.242;6.386;2023-01-04T06:16:58;10.20;99.90
51579;DHT22;47998;53.242;6.386;2023-01-04T06:19:25;10.20;99.90
51579;DHT22;47998;53.242;6.386;2023-01-04T06:21:51;10.00;99.90
51579;DHT22;47998;53.242;6.386;2023-01-04T06:24:17;10.10;99.90
51579;DHT22;47998;53.242;6.386;2023-01-04T06:26:43;10.40;99.90
51579;DHT22;47998;53.242;6.386;2023-01-04T06:29:09;10.50;99.90
51579;DHT22;47998;53.242;6.386;2023-01-04T06:31:35;10.10;99.90
51579;DHT22;47998;53.242;6.386;2023-01-04T06:34:01;10.90;99.90
51579;DHT22;47998;53.242;6.386;2023-01-04T06:36:26;10.50;99.90
51579;DHT22;47998;53.242;6.386;2023-01-04T06:38:52;10.70;99.90
51579;DHT22;47998;53.242;6.386;2023-01-04T06:41:18;10.60;99.90
51579;DHT22;47998;53.242;6.386;2023-01-04T06:43:44;10.80;99.90
51579;DHT22;47998;53.242;6.386;2023-01-04T06:46:09;10.40;99.90
51579;DHT22;47998;53.242;6.386;2023-01-04T06:48:35;10.90;99.90
51579;DHT22;47998;53.242;6.386;2023-01-04T06:51:01;10.20;99.90
51579;DHT22;47998;53.242;6.386;2023-01-04T06:53:27;10.80;99.90
51579;DHT22;47998;53.242;6.386;2023-01-04T06:55:52;10.50;99.90
51579;DHT22;47998;53.242;6.386;2023-01-04T06:58:18;10.50;99.90
51579;DHT22;47998;53.242;6.386;2023-01-04T07:00:44;10.50;99.90
51579;DHT22;47998;53.242;6.386;2023-01-04T07:03:10;10.70;99.90
51579;DHT22;47998;53.242;6.386;2023-01-04T07:05:36;10.50;99.90
51579;DHT22;47998;53.242;6.386;2023-01-04T07:08:02;10.40;99.90
51579;DHT22;47998;53.242;6.386;2023-01-04T07:10:29;10.20;99.90
51579;DHT22;47998;53.242;6.386;2023-01-04T07:12:55;10.60;99.90
51579;DHT22;47998;53.242;6.386;2023-01-04T07:15:21;10.70;99.90
51579;DHT22;47998;53.242;6.386;2023-01-04T07:17:47;10.50;99.90
51579;DHT22;47998;53.242;6.386;2023-01-04T07:20:13;11.00;99.90
51579;DHT22;47998;53.242;6.386;2023-01-04T07:22:39;10.80;99.90
51579;DHT22;47998;53.242;6.386;2023-01-04T07:25:05;10.60;99.90
51579;DHT22;47998;53.242;6.386;2023-01-04T07:27:31;10.20;99.90
51579;DHT22;47998;53.242;6.386;2023-01-04T07:29:56;10.80;99.90
51579;DHT22;47998;53.242;6.386;2023-01-04T07:32:22;10.20;99.90
51579;DHT22;47998;53.242;6.386;2023-01-04T07:34:48;11.00;99.90
51579;DHT22;47998;53.242;6.386;2023-01-04T07:37:13;11.00;99.90
51579;DHT22;47998;53.242;6.386;2023-01-04T07:39:41;10.70;99.90
51579;DHT22;47998;53.242;6.386;2023-01-04T07:42:06;10.20;99.90
51579;DHT22;47998;53.242;6.386;2023-01-04T07:44:32;11.00;99.90
51579;DHT22;47998;53.242;6.386;2023-01-04T07:46:58;10.80;99.90
51579;DHT22;47998;53.242;6.386;2023-01-04T07:49:24;10.70;99.90
51579;DHT22;47998;53.242;6.386;2023-01-04T07:51:49;10.20;99.90
51579;DHT22;47998;53.242;6.386;2023-01-04T07:54:16;11.00;99.90
51579;DHT22;47998;53.242;6.386;2023-01-04T07:56:43;10.80;99.90
51579;DHT22;47998;53.242;6.386;2023-01-04T07:59:11;10.30;99.90
51579;DHT22;47998;53.242;6.386;2023-01-04T08:01:38;10.70;99.90
51579;DHT22;47998;53.242;6.386;2023-01-04T08:04:05;10.30;99.90
51579;DHT22;47998;53.242;6.386;2023-01-04T08:06:31;10.90;99.90
51579;DHT22;47998;53.242;6.386;2023-01-04T08:08:58;10.20;99.90
51579;DHT22;47998;53.242;6.386;2023-01-04T08:11:24;10.20;99.90
51579;DHT22;47998;53.242;6.386;2023-01-04T08:13:50;10.30;99.90
51579;DHT22;47998;53.242;6.386;2023-01-04T08:16:33;10.40;99.90
51579;DHT22;47998;53.242;6.386;2023-01-04T08:19:01;10.60;99.90
51579;DHT22;47998;53.242;6.386;2023-01-04T08:21:28;10.30;99.90
51579;DHT22;47998;53.242;6.386;2023-01-04T08:23:54;10.60;99.90
51579;DHT22;47998;53.242;6.386;2023-01-04T08:26:21;10.30;99.90
51579;DHT22;47998;53.242;6.386;2023-01-04T08:28:47;10.20;99.90
51579;DHT22;47998;53.242;6.386;2023-01-04T08:31:16;10.80;99.90
51579;DHT22;47998;53.242;6.386;2023-01-04T08:33:42;10.90;99.90
51579;DHT22;47998;53.242;6.386;2023-01-04T08:36:24;10.80;99.90
51579;DHT22;47998;53.242;6.386;2023-01-04T08:38:52;10.50;99.90
51579;DHT22;47998;53.242;6.386;2023-01-04T08:41:18;10.40;99.90
51579;DHT22;47998;53.242;6.386;2023-01-04T08:43:44;10.30;99.90
51579;DHT22;47998;53.242;6.386;2023-01-04T08:46:11;10.60;99.90
51579;DHT22;47998;53.242;6.386;2023-01-04T08:48:38;10.60;99.90
51579;DHT22;47998;53.242;6.386;2023-01-04T08:51:06;10.70;99.90
51579;DHT22;47998;53.242;6.386;2023-01-04T08:53:33;10.30;99.90
51579;DHT22;47998;53.242;6.386;2023-01-04T08:55:59;10.30;99.90
51579;DHT22;47998;53.242;6.386;2023-01-04T08:58:26;10.40;99.90
51579;DHT22;47998;53.242;6.386;2023-01-04T09:00:53;10.40;99.90
51579;DHT22;47998;53.242;6.386;2023-01-04T09:03:23;10.40;99.90
51579;DHT22;47998;53.242;6.386;2023-01-04T09:05:49;10.40;99.90
51579;DHT22;47998;53.242;6.386;2023-01-04T09:08:15;11.10;99.90
51579;DHT22;47998;53.242;6.386;2023-01-04T09:10:40;10.50;99.90
51579;DHT22;47998;53.242;6.386;2023-01-04T09:13:06;11.10;99.90
51579;DHT22;47998;53.242;6.386;2023-01-04T09:15:32;10.90;99.90
51579;DHT22;47998;53.242;6.386;2023-01-04T09:17:58;10.60;99.90
51579;DHT22;47998;53.242;6.386;2023-01-04T09:20:24;10.70;99.90
51579;DHT22;47998;53.242;6.386;2023-01-04T09:22:50;11.20;99.90
51579;DHT22;47998;53.242;6.386;2023-01-04T09:25:15;11.10;99.90
51579;DHT22;47998;53.242;6.386;2023-01-04T09:27:41;10.80;99.90
51579;DHT22;47998;53.242;6.386;2023-01-04T09:30:08;11.20;99.90
51579;DHT22;47998;53.242;6.386;2023-01-04T09:32:33;11.20;99.90
51579;DHT22;47998;53.242;6.386;2023-01-04T09:34:59;10.60;99.90
51579;DHT22;47998;53.242;6.386;2023-01-04T09:37:25;11.30;99.90
51579;DHT22;47998;53.242;6.386;2023-01-04T09:39:51;10.70;99.90
51579;DHT22;47998;53.242;6.386;2023-01-04T09:42:29;11.20;99.90
51579;DHT22;47998;53.242;6.386;2023-01-04T09:45:01;11.20;99.90
51579;DHT22;47998;53.242;6.386;2023-01-04T09:50:21;10.80;99.90
51579;DHT22;47998;53.242;6.386;2023-01-04T09:53:09;10.80;99.90
51579;DHT22;47998;53.242;6.386;2023-01-04T09:55:49;10.80;99.90
51579;DHT22;47998;53.242;6.386;2023-01-04T09:58:27;11.10;99.90
51579;DHT22;47998;53.242;6.386;2023-01-04T10:01:06;10.90;99.90
51579;DHT22;47998;53.242;6.386;2023-01-04T10:03:37;11.20;99.90
51579;DHT22;47998;53.242;6.386;2023-01-04T10:06:09;10.90;99.90
51579;DHT22;47998;53.242;6.386;2023-01-04T10:08:35;11.00;99.90
51579;DHT22;47998;53.242;6.386;2023-01-04T10:14:11;11.10;99.90
51579;DHT22;47998;53.242;6.386;2023-01-04T10:22:10;11.10;99.90
51579;DHT22;47998;53.242;6.386;2023-01-04T10:24:46;11.10;99.90
51579;DHT22;47998;53.242;6.386;2023-01-04T10:27:22;11.20;99.90
51579;DHT22;47998;53.242;6.386;2023-01-04T10:30:20;11.20;99.90
51579;DHT22;47998;53.242;6.386;2023-01-04T10:33:00;11.10;99.90
51579;DHT22;47998;53.242;6.386;2023-01-04T10:35:30;11.20;99.90
51579;DHT22;47998;53.242;6.386;2023-01-04T10:37:59;11.20;99.90
51579;DHT22;47998;53.242;6.386;2023-01-04T10:40:27;11.20;99.90
51579;DHT22;47998;53.242;6.386;2023-01-04T10:48:31;11.30;99.90
51579;DHT22;47998;53.242;6.386;2023-01-04T10:51:04;11.30;99.90
51579;DHT22;47998;53.242;6.386;2023-01-04T10:53:46;11.30;99.90
51579;DHT22;47998;53.242;6.386;2023-01-04T10:56:25;11.40;99.90
51579;DHT22;47998;53.242;6.386;2023-01-04T11:01:39;11.40;99.90
51579;DHT22;47998;53.242;6.386;2023-01-04T11:04:34;11.50;99.90
51579;DHT22;47998;53.242;6.386;2023-01-04T11:07:25;11.50;99.90
51579;DHT22;47998;53.242;6.386;2023-01-04T11:10:00;11.50;99.90
51579;DHT22;47998;53.242;6.386;2023-01-04T11:12:27;11.50;99.90
51579;DHT22;47998;53.242;6.386;2023-01-04T11:14:53;11.50;99.90
51579;DHT22;47998;53.242;6.386;2023-01-04T11:17:20;11.50;99.90
51579;DHT22;47998;53.242;6.386;2023-01-04T11:19:46;11.50;99.90
51579;DHT22;47998;53.242;6.386;2023-01-04T11:22:23;11.50;99.90
51579;DHT22;47998;53.242;6.386;2023-01-04T11:24:56;11.50;99.90
51579;DHT22;47998;53.242;6.386;2023-01-04T11:27:28;11.50;99.90
51579;DHT22;47998;53.242;6.386;2023-01-04T11:30:26;11.60;99.90
51579;DHT22;47998;53.242;6.386;2023-01-04T11:33:02;11.50;99.90
51579;DHT22;47998;53.242;6.386;2023-01-04T11:35:44;11.50;99.90
51579;DHT22;47998;53.242;6.386;2023-01-04T11:38:13;11.60;99.90
51579;DHT22;47998;53.242;6.386;2023-01-04T11:40:40;11.50;99.90
51579;DHT22;47998;53.242;6.386;2023-01-04T11:43:17;11.50;99.90
51579;DHT22;47998;53.242;6.386;2023-01-04T11:48:18;11.50;99.90
51579;DHT22;47998;53.242;6.386;2023-01-04T11:50:54;11.40;99.90
51579;DHT22;47998;53.242;6.386;2023-01-04T11:56:16;11.50;99.90
51579;DHT22;47998;53.242;6.386;2023-01-04T11:58:44;11.50;99.90
51579;DHT22;47998;53.242;6.386;2023-01-04T12:01:26;11.50;99.90
51579;DHT22;47998;53.242;6.386;2023-01-04T12:03:52;11.50;99.90
51579;DHT22;47998;53.242;6.386;2023-01-04T12:08:58;11.60;99.90
51579;DHT22;47998;53.242;6.386;2023-01-04T12:11:28;11.60;99.90
51579;DHT22;47998;53.242;6.386;2023-01-04T12:13:57;11.70;99.90
51579;DHT22;47998;53.242;6.386;2023-01-04T12:16:43;11.70;99.90
51579;DHT22;47998;53.242;6.386;2023-01-04T12:19:16;11.70;99.90
51579;DHT22;47998;53.242;6.386;2023-01-04T12:21:48;11.70;99.90
51579;DHT22;47998;53.242;6.386;2023-01-04T12:24:17;11.70;99.90
51579;DHT22;47998;53.242;6.386;2023-01-04T12:26:43;11.70;99.90
51579;DHT22;47998;53.242;6.386;2023-01-04T12:42:09;11.80;99.90
51579;DHT22;47998;53.242;6.386;2023-01-04T12:50:20;11.90;99.90
51579;DHT22;47998;53.242;6.386;2023-01-04T12:52:58;11.90;99.90
51579;DHT22;47998;53.242;6.386;2023-01-04T12:57:52;11.90;99.90
51579;DHT22;47998;53.242;6.386;2023-01-04T13:00:18;11.90;99.90
51579;DHT22;47998;53.242;6.386;2023-01-04T13:02:46;11.90;99.90
51579;DHT22;47998;53.242;6.386;2023-01-04T13:07:48;11.90;99.90
51579;DHT22;47998;53.242;6.386;2023-01-04T13:10:47;11.90;99.90
51579;DHT22;47998;53.242;6.386;2023-01-04T13:13:31;11.90;99.90
51579;DHT22;47998;53.242;6.386;2023-01-04T13:16:19;12.00;70.60
51579;DHT22;47998;53.242;6.386;2023-01-04T13:23:56;12.00;99.90
51579;DHT22;47998;53.242;6.386;2023-01-04T13:26:43;12.00;99.90
51579;DHT22;47998;53.242;6.386;2023-01-04T13:34:29;12.00;99.90
51579;DHT22;47998;53.242;6.386;2023-01-04T13:39:45;11.90;99.90
51579;DHT22;47998;53.242;6.386;2023-01-04T13:42:25;11.90;99.90
51579;DHT22;47998;53.242;6.386;2023-01-04T13:47:17;11.90;30.40
51579;DHT22;47998;53.242;6.386;2023-01-04T13:49:43;11.90;12.60
51579;DHT22;47998;53.242;6.386;2023-01-04T13:52:38;11.90;1.00
51579;DHT22;47998;53.242;6.386;2023-01-04T13:55:23;11.90;1.00
51579;DHT22;47998;53.242;6.386;2023-01-04T14:00:21;11.90;99.90
51579;DHT22;47998;53.242;6.386;2023-01-04T14:05:33;11.90;99.90
51579;DHT22;47998;53.242;6.386;2023-01-04T14:07:59;11.90;99.90
51579;DHT22;47998;53.242;6.386;2023-01-04T14:10:25;11.90;99.90
51579;DHT22;47998;53.242;6.386;2023-01-04T14:12:51;11.90;99.90
51579;DHT22;47998;53.242;6.386;2023-01-04T14:15:23;11.90;99.90
51579;DHT22;47998;53.242;6.386;2023-01-04T14:17:51;11.80;99.90
51579;DHT22;47998;53.242;6.386;2023-01-04T14:22:52;11.90;99.90
51579;DHT22;47998;53.242;6.386;2023-01-04T14:25:35;11.90;99.90
51579;DHT22;47998;53.242;6.386;2023-01-04T14:38:37;11.80;99.90
51579;DHT22;47998;53.242;6.386;2023-01-04T14:41:33;11.80;99.90
51579;DHT22;47998;53.242;6.386;2023-01-04T14:46:26;11.80;49.50
51579;DHT22;47998;53.242;6.386;2023-01-04T14:48:52;11.70;93.30
51579;DHT22;47998;53.242;6.386;2023-01-04T14:51:25;11.70;99.90
51579;DHT22;47998;53.242;6.386;2023-01-04T14:53:53;11.70;19.60
51579;DHT22;47998;53.242;6.386;2023-01-04T14:56:19;11.70;99.90
51579;DHT22;47998;53.242;6.386;2023-01-04T14:58:45;11.60;99.90
51579;DHT22;47998;53.242;6.386;2023-01-04T15:01:11;11.70;99.90
51579;DHT22;47998;53.242;6.386;2023-01-04T15:03:37;11.70;99.90
51579;DHT22;47998;53.242;6.386;2023-01-04T15:06:04;11.70;99.90
51579;DHT22;47998;53.242;6.386;2023-01-04T15:08:30;11.70;99.90
51579;DHT22;47998;53.242;6.386;2023-01-04T15:10:56;11.70;1.00
51579;DHT22;47998;53.242;6.386;2023-01-04T15:13:22;11.70;99.90
51579;DHT22;47998;53.242;6.386;2023-01-04T15:15:48;11.60;99.90
51579;DHT22;47998;53.242;6.386;2023-01-04T15:18:16;11.50;99.90
51579;DHT22;47998;53.242;6.386;2023-01-04T15:20:41;11.40;1.00
51579;DHT22;47998;53.242;6.386;2023-01-04T15:23:07;11.40;1.00
51579;DHT22;47998;53.242;6.386;2023-01-04T15:25:33;11.40;16.50
51579;DHT22;47998;53.242;6.386;2023-01-04T15:27:59;11.40;86.90
51579;DHT22;47998;53.242;6.386;2023-01-04T15:30:25;11.40;69.70
51579;DHT22;47998;53.242;6.386;2023-01-04T15:32:51;11.40;99.90
51579;DHT22;47998;53.242;6.386;2023-01-04T15:35:17;11.40;1.00
51579;DHT22;47998;53.242;6.386;2023-01-04T15:37:43;11.40;99.90
51579;DHT22;47998;53.242;6.386;2023-01-04T15:40:10;11.40;99.90
51579;DHT22;47998;53.242;6.386;2023-01-04T15:42:36;11.30;99.90
51579;DHT22;47998;53.242;6.386;2023-01-04T15:45:21;11.30;99.90
51579;DHT22;47998;53.242;6.386;2023-01-04T15:47:49;11.30;99.90
51579;DHT22;47998;53.242;6.386;2023-01-04T15:50:15;11.30;99.90
51579;DHT22;47998;53.242;6.386;2023-01-04T15:52:41;11.30;99.90
51579;DHT22;47998;53.242;6.386;2023-01-04T15:55:07;11.30;92.60
51579;DHT22;47998;53.242;6.386;2023-01-04T15:57:32;11.30;99.90
51579;DHT22;47998;53.242;6.386;2023-01-04T15:59:58;11.30;44.70
51579;DHT22;47998;53.242;6.386;2023-01-04T16:02:24;11.30;3.10
51579;DHT22;47998;53.242;6.386;2023-01-04T16:04:49;11.30;20.70
51579;DHT22;47998;53.242;6.386;2023-01-04T16:07:16;11.30;99.90
51579;DHT22;47998;53.242;6.386;2023-01-04T16:09:42;11.30;14.00
51579;DHT22;47998;53.242;6.386;2023-01-04T16:12:08;11.20;85.30
51579;DHT22;47998;53.242;6.386;2023-01-04T16:14:52;11.20;1.00
51579;DHT22;47998;53.242;6.386;2023-01-04T16:17:18;11.20;1.00
51579;DHT22;47998;53.242;6.386;2023-01-04T16:19:44;11.30;1.00
51579;DHT22;47998;53.242;6.386;2023-01-04T16:22:10;11.20;1.00
51579;DHT22;47998;53.242;6.386;2023-01-04T16:24:35;11.10;75.60
51579;DHT22;47998;53.242;6.386;2023-01-04T16:27:01;11.10;99.90
51579;DHT22;47998;53.242;6.386;2023-01-04T16:29:27;11.00;99.90
51579;DHT22;47998;53.242;6.386;2023-01-04T16:31:53;10.90;99.90
51579;DHT22;47998;53.242;6.386;2023-01-04T16:34:19;10.90;99.90
51579;DHT22;47998;53.242;6.386;2023-01-04T16:36:47;10.90;99.90
51579;DHT22;47998;53.242;6.386;2023-01-04T16:39:13;10.80;99.90
51579;DHT22;47998;53.242;6.386;2023-01-04T16:41:39;10.70;99.90
51579;DHT22;47998;53.242;6.386;2023-01-04T16:44:05;10.70;99.90
51579;DHT22;47998;53.242;6.386;2023-01-04T16:46:33;10.50;99.90
51579;DHT22;47998;53.242;6.386;2023-01-04T16:49:05;10.50;99.90
51579;DHT22;47998;53.242;6.386;2023-01-04T16:51:33;10.50;99.90
51579;DHT22;47998;53.242;6.386;2023-01-04T16:54:01;10.50;99.90
51579;DHT22;47998;53.242;6.386;2023-01-04T16:56:28;10.50;99.90
51579;DHT22;47998;53.242;6.386;2023-01-04T16:58:54;10.50;99.90
51579;DHT22;47998;53.242;6.386;2023-01-04T17:01:22;10.40;99.90
51579;DHT22;47998;53.242;6.386;2023-01-04T17:03:48;10.40;99.90
51579;DHT22;47998;53.242;6.386;2023-01-04T17:06:17;10.40;99.90
51579;DHT22;47998;53.242;6.386;2023-01-04T17:08:44;10.40;99.90
51579;DHT22;47998;53.242;6.386;2023-01-04T17:11:12;10.40;99.90
51579;DHT22;47998;53.242;6.386;2023-01-04T17:13:38;10.40;99.90
51579;DHT22;47998;53.242;6.386;2023-01-04T17:16:05;10.40;99.90
51579;DHT22;47998;53.242;6.386;2023-01-04T17:18:32;10.40;99.90
51579;DHT22;47998;53.242;6.386;2023-01-04T17:20:59;10.40;99.90
51579;DHT22;47998;53.242;6.386;2023-01-04T17:23:27;10.30;99.90
51579;DHT22;47998;53.242;6.386;2023-01-04T17:25:53;10.40;99.90
51579;DHT22;47998;53.242;6.386;2023-01-04T17:28:19;10.40;99.90
51579;DHT22;47998;53.242;6.386;2023-01-04T17:30:45;10.30;99.90
51579;DHT22;47998;53.242;6.386;2023-01-04T17:33:11;10.40;99.90
51579;DHT22;47998;53.242;6.386;2023-01-04T17:35:40;10.30;99.90
51579;DHT22;47998;53.242;6.386;2023-01-04T17:38:06;10.30;99.90
51579;DHT22;47998;53.242;6.386;2023-01-04T17:40:32;10.30;99.90
51579;DHT22;47998;53.242;6.386;2023-01-04T17:43:01;10.40;99.90
51579;DHT22;47998;53.242;6.386;2023-01-04T17:45:27;10.40;99.90
51579;DHT22;47998;53.242;6.386;2023-01-04T17:47:53;10.40;99.90
51579;DHT22;47998;53.242;6.386;2023-01-04T17:50:20;10.40;99.90
51579;DHT22;47998;53.242;6.386;2023-01-04T17:52:47;10.40;99.90